sensor_id;sensor_type;location;lat;lon;timestamp;pressure;altitude;pressure_sealevel;temperature;humidity
29239;BME280;16267;48.194;11.546;2023-04-21T00:00:23;95617.25;;;7.97;92.61
29239;BME280;16267;48.194;11.546;2023-04-21T00:02:49;95613.06;;;7.96;91.94
29239;BME280;16267;48.194;11.546;2023-04-21T00:05:15;95605.41;;;7.98;92.26
29239;BME280;16267;48.194;11.546;2023-04-21T00:07:41;95597.81;;;7.93;91.50
29239;BME280;16267;48.194;11.546;2023-04-21T00:10:08;95600.84;;;7.95;92.29
29239;BME280;16267;48.194;11.546;2023-04-21T00:12:35;95586.34;;;7.96;92.06
29239;BME280;16267;48.194;11.546;2023-04-21T00:15:01;95594.72;;;7.95;91.56
29239;BME280;16267;48.194;11.546;2023-04-21T00:17:26;95579.88;;;7.87;91.82
29239;BME280;16267;48.194;11.546;2023-04-21T00:19:52;95582.97;;;7.85;92.10
29239;BME280;16267;48.194;11.546;2023-04-21T00:22:19;95584.47;;;7.86;92.52
29239;BME280;16267;48.194;11.546;2023-04-21T00:24:46;95578.75;;;7.84;93.20
29239;BME280;16267;48.194;11.546;2023-04-21T00:27:12;95583.34;;;7.83;93.56
29239;BME280;16267;48.194;11.546;2023-04-21T00:29:38;95579.88;;;7.87;93.86
29239;BME280;16267;48.194;11.546;2023-04-21T00:32:06;95588.31;;;7.85;92.40
29239;BME280;16267;48.194;11.546;2023-04-21T00:34:35;95586.06;;;7.80;92.74
29239;BME280;16267;48.194;11.546;2023-04-21T00:37:02;95584.50;;;7.82;93.29
29239;BME280;16267;48.194;11.546;2023-04-21T00:39:28;95587.94;;;7.83;93.79
29239;BME280;16267;48.194;11.546;2023-04-21T00:41:54;95595.59;;;7.77;93.58
29239;BME280;16267;48.194;11.546;2023-04-21T00:44:19;95584.13;;;7.80;94.48
29239;BME280;16267;48.194;11.546;2023-04-21T00:46:45;95570.78;;;7.80;94.09
29239;BME280;16267;48.194;11.546;2023-04-21T00:49:11;95577.63;;;7.85;94.26
29239;BME280;16267;48.194;11.546;2023-04-21T00:51:38;95574.16;;;7.88;93.88
29239;BME280;16267;48.194;11.546;2023-04-21T00:54:06;95572.66;;;7.87;93.22
29239;BME280;16267;48.194;11.546;2023-04-21T00:56:34;95567.66;;;7.89;93.61
29239;BME280;16267;48.194;11.546;2023-04-21T00:59:01;95561.19;;;7.90;93.59
29239;BME280;16267;48.194;11.546;2023-04-21T01:01:29;95572.22;;;7.92;92.93
29239;BME280;16267;48.194;11.546;2023-04-21T01:03:59;95567.66;;;7.93;92.82
29239;BME280;16267;48.194;11.546;2023-04-21T01:06:30;95563.81;;;7.94;92.74
29239;BME280;16267;48.194;11.546;2023-04-21T01:08:59;95547.41;;;7.95;92.75
29239;BME280;16267;48.194;11.546;2023-04-21T01:11:25;95546.25;;;7.96;92.15
29239;BME280;16267;48.194;11.546;2023-04-21T01:13:52;95556.19;;;7.96;92.00
29239;BME280;16267;48.194;11.546;2023-04-21T01:16:22;95562.28;;;7.96;92.69
29239;BME280;16267;48.194;11.546;2023-04-21T01:18:49;95547.00;;;7.97;92.44
29239;BME280;16267;48.194;11.546;2023-04-21T01:21:16;95549.66;;;7.97;91.55
29239;BME280;16267;48.194;11.546;2023-04-21T01:23:44;95563.78;;;7.97;92.47
29239;BME280;16267;48.194;11.546;2023-04-21T01:26:10;95569.16;;;7.94;92.62
29239;BME280;16267;48.194;11.546;2023-04-21T01:28:36;95568.41;;;7.90;92.24
29239;BME280;16267;48.194;11.546;2023-04-21T01:31:03;95560.03;;;7.91;93.12
29239;BME280;16267;48.194;11.546;2023-04-21T01:33:29;95555.81;;;7.94;93.21
29239;BME280;16267;48.194;11.546;2023-04-21T01:35:55;95559.22;;;7.94;92.92
29239;BME280;16267;48.194;11.546;2023-04-21T01:38:21;95553.88;;;7.94;92.71
29239;BME280;16267;48.194;11.546;2023-04-21T01:40:51;95553.50;;;7.96;93.02
29239;BME280;16267;48.194;11.546;2023-04-21T01:43:21;95558.09;;;7.95;92.77
29239;BME280;16267;48.194;11.546;2023-04-21T01:45:47;95564.19;;;7.96;92.45
29239;BME280;16267;48.194;11.546;2023-04-21T01:48:13;95571.81;;;7.97;92.73
29239;BME280;16267;48.194;11.546;2023-04-21T01:50:39;95568.00;;;7.98;92.63
29239;BME280;16267;48.194;11.546;2023-04-21T01:53:05;95569.88;;;7.98;92.42
29239;BME280;16267;48.194;11.546;2023-04-21T01:55:31;95568.75;;;7.99;92.83
29239;BME280;16267;48.194;11.546;2023-04-21T01:57:57;95570.66;;;7.98;92.16
29239;BME280;16267;48.194;11.546;2023-04-21T02:00:24;95567.59;;;8.00;92.24
29239;BME280;16267;48.194;11.546;2023-04-21T02:02:51;95567.59;;;8.00;92.25
29239;BME280;16267;48.194;11.546;2023-04-21T02:05:17;95568.34;;;8.00;92.18
29239;BME280;16267;48.194;11.546;2023-04-21T02:07:44;95561.13;;;8.01;91.79
29239;BME280;16267;48.194;11.546;2023-04-21T02:10:11;95562.63;;;8.02;91.50
29239;BME280;16267;48.194;11.546;2023-04-21T02:12:37;95559.94;;;8.02;91.21
29239;BME280;16267;48.194;11.546;2023-04-21T02:15:04;95557.28;;;8.02;91.34
29239;BME280;16267;48.194;11.546;2023-04-21T02:17:30;95558.78;;;8.03;91.03
29239;BME280;16267;48.194;11.546;2023-04-21T02:19:56;95558.03;;;8.02;91.12
29239;BME280;16267;48.194;11.546;2023-04-21T02:22:22;95564.88;;;8.03;90.79
29239;BME280;16267;48.194;11.546;2023-04-21T02:24:49;95556.88;;;8.03;90.72
29239;BME280;16267;48.194;11.546;2023-04-21T02:27:15;95556.88;;;8.03;91.35
29239;BME280;16267;48.194;11.546;2023-04-21T02:29:41;95552.31;;;8.04;91.47
29239;BME280;16267;48.194;11.546;2023-04-21T02:32:07;95544.28;;;8.04;91.21
29239;BME280;16267;48.194;11.546;2023-04-21T02:34:33;95546.19;;;8.03;91.42
29239;BME280;16267;48.194;11.546;2023-04-21T02:36:59;95546.97;;;8.04;91.19
29239;BME280;16267;48.194;11.546;2023-04-21T02:39:25;95548.09;;;8.03;90.70
29239;BME280;16267;48.194;11.546;2023-04-21T02:41:51;95540.81;;;8.03;90.80
29239;BME280;16267;48.194;11.546;2023-04-21T02:44:17;95550.00;;;8.02;90.79
29239;BME280;16267;48.194;11.546;2023-04-21T02:46:42;95536.66;;;8.02;90.32
29239;BME280;16267;48.194;11.546;2023-04-21T02:49:09;95537.81;;;8.01;90.51
29239;BME280;16267;48.194;11.546;2023-04-21T02:51:35;95537.81;;;8.01;90.37
29239;BME280;16267;48.194;11.546;2023-04-21T02:54:02;95530.53;;;8.02;90.63
29239;BME280;16267;48.194;11.546;2023-04-21T02:56:27;95527.50;;;8.00;90.79
29239;BME280;16267;48.194;11.546;2023-04-21T02:58:53;95532.84;;;8.00;91.02
29239;BME280;16267;48.194;11.546;2023-04-21T03:01:19;95524.06;;;7.99;91.34
29239;BME280;16267;48.194;11.546;2023-04-21T03:03:45;95513.78;;;7.98;91.76
29239;BME280;16267;48.194;11.546;2023-04-21T03:06:10;95522.56;;;7.98;91.43
29239;BME280;16267;48.194;11.546;2023-04-21T03:08:36;95524.47;;;7.98;91.34
29239;BME280;16267;48.194;11.546;2023-04-21T03:11:02;95520.28;;;7.97;91.16
29239;BME280;16267;48.194;11.546;2023-04-21T03:13:28;95522.94;;;7.97;91.26
29239;BME280;16267;48.194;11.546;2023-04-21T03:15:53;95527.53;;;7.96;91.28
29239;BME280;16267;48.194;11.546;2023-04-21T03:18:19;95524.13;;;7.96;91.22
29239;BME280;16267;48.194;11.546;2023-04-21T03:20:45;95524.13;;;7.96;91.65
29239;BME280;16267;48.194;11.546;2023-04-21T03:23:11;95530.59;;;7.95;91.71
29239;BME280;16267;48.194;11.546;2023-04-21T03:25:38;95536.72;;;7.95;91.58
29239;BME280;16267;48.194;11.546;2023-04-21T03:28:03;95543.59;;;7.93;91.86
29239;BME280;16267;48.194;11.546;2023-04-21T03:30:29;95540.94;;;7.93;92.34
29239;BME280;16267;48.194;11.546;2023-04-21T03:32:55;95537.88;;;7.91;92.70
29239;BME280;16267;48.194;11.546;2023-04-21T03:35:21;95553.91;;;7.91;92.89
29239;BME280;16267;48.194;11.546;2023-04-21T03:37:47;95537.13;;;7.90;92.86
29239;BME280;16267;48.194;11.546;2023-04-21T03:40:14;95542.47;;;7.90;92.70
29239;BME280;16267;48.194;11.546;2023-04-21T03:42:40;95537.13;;;7.90;92.29
29239;BME280;16267;48.194;11.546;2023-04-21T03:45:08;95535.59;;;7.89;91.94
29239;BME280;16267;48.194;11.546;2023-04-21T03:47:34;95533.69;;;7.90;91.81
29239;BME280;16267;48.194;11.546;2023-04-21T03:50:03;95537.13;;;7.90;91.68
29239;BME280;16267;48.194;11.546;2023-04-21T03:52:30;95534.47;;;7.90;91.55
29239;BME280;16267;48.194;11.546;2023-04-21T03:54:56;95544.00;;;7.91;91.72
29239;BME280;16267;48.194;11.546;2023-04-21T03:57:21;95547.41;;;7.92;91.40
29239;BME280;16267;48.194;11.546;2023-04-21T03:59:47;95540.56;;;7.91;91.79
29239;BME280;16267;48.194;11.546;2023-04-21T04:02:13;95537.13;;;7.90;91.52
29239;BME280;16267;48.194;11.546;2023-04-21T04:04:38;95533.69;;;7.90;91.29
29239;BME280;16267;48.194;11.546;2023-04-21T04:07:04;95530.25;;;7.89;91.72
29239;BME280;16267;48.194;11.546;2023-04-21T04:09:32;95524.91;;;7.89;91.34
29239;BME280;16267;48.194;11.546;2023-04-21T04:11:57;95536.00;;;7.88;91.10
29239;BME280;16267;48.194;11.546;2023-04-21T04:14:23;95539.44;;;7.88;91.43
29239;BME280;16267;48.194;11.546;2023-04-21T04:16:49;95540.59;;;7.87;91.31
29239;BME280;16267;48.194;11.546;2023-04-21T04:19:15;95552.41;;;7.86;91.61
29239;BME280;16267;48.194;11.546;2023-04-21T04:21:40;95550.91;;;7.85;92.01
29239;BME280;16267;48.194;11.546;2023-04-21T04:24:06;95570.38;;;7.86;92.28
29239;BME280;16267;48.194;11.546;2023-04-21T04:26:33;95566.94;;;7.85;92.07
29239;BME280;16267;48.194;11.546;2023-04-21T04:29:00;95560.84;;;7.85;91.70
29239;BME280;16267;48.194;11.546;2023-04-21T04:31:28;95558.50;;;7.87;92.03
29239;BME280;16267;48.194;11.546;2023-04-21T04:33:55;95560.44;;;7.86;91.77
29239;BME280;16267;48.194;11.546;2023-04-21T04:36:24;95553.16;;;7.87;91.90
29239;BME280;16267;48.194;11.546;2023-04-21T04:38:50;95544.41;;;7.86;91.21
29239;BME280;16267;48.194;11.546;2023-04-21T04:41:16;95552.41;;;7.86;91.64
29239;BME280;16267;48.194;11.546;2023-04-21T04:43:43;95547.06;;;7.86;91.66
29239;BME280;16267;48.194;11.546;2023-04-21T04:46:11;95548.59;;;7.87;92.05
29239;BME280;16267;48.194;11.546;2023-04-21T04:48:38;95545.94;;;7.87;91.60
29239;BME280;16267;48.194;11.546;2023-04-21T04:51:04;95552.03;;;7.88;91.54
29239;BME280;16267;48.194;11.546;2023-04-21T04:53:31;95544.03;;;7.88;91.78
29239;BME280;16267;48.194;11.546;2023-04-21T04:55:58;95563.84;;;7.87;92.03
29239;BME280;16267;48.194;11.546;2023-04-21T04:58:24;95556.63;;;7.87;92.63
29239;BME280;16267;48.194;11.546;2023-04-21T05:00:49;95553.94;;;7.87;92.34
29239;BME280;16267;48.194;11.546;2023-04-21T05:03:15;95561.56;;;7.89;91.79
29239;BME280;16267;48.194;11.546;2023-04-21T05:05:41;95569.19;;;7.90;91.96
29239;BME280;16267;48.194;11.546;2023-04-21T05:08:07;95557.34;;;7.91;91.73
29239;BME280;16267;48.194;11.546;2023-04-21T05:10:33;95562.69;;;7.91;91.93
29239;BME280;16267;48.194;11.546;2023-04-21T05:12:59;95563.06;;;7.93;91.74
29239;BME280;16267;48.194;11.546;2023-04-21T05:15:25;95573.75;;;7.93;91.82
29239;BME280;16267;48.194;11.546;2023-04-21T05:17:50;95578.75;;;7.88;92.30
29239;BME280;16267;48.194;11.546;2023-04-21T05:20:16;95585.59;;;7.89;93.90
29239;BME280;16267;48.194;11.546;2023-04-21T05:22:42;95579.88;;;7.90;94.43
29239;BME280;16267;48.194;11.546;2023-04-21T05:25:10;95581.41;;;7.91;94.49
29239;BME280;16267;48.194;11.546;2023-04-21T05:27:39;95579.09;;;7.93;94.27
29239;BME280;16267;48.194;11.546;2023-04-21T05:30:06;95576.81;;;7.95;93.99
29239;BME280;16267;48.194;11.546;2023-04-21T05:32:32;95572.56;;;7.98;93.24
29239;BME280;16267;48.194;11.546;2023-04-21T05:34:57;95585.53;;;7.99;93.35
29239;BME280;16267;48.194;11.546;2023-04-21T05:37:25;95585.50;;;8.03;93.13
29239;BME280;16267;48.194;11.546;2023-04-21T05:39:51;95575.19;;;8.05;92.90
29239;BME280;16267;48.194;11.546;2023-04-21T05:42:16;95577.06;;;8.08;92.52
29239;BME280;16267;48.194;11.546;2023-04-21T05:44:46;95575.16;;;8.12;92.39
29239;BME280;16267;48.194;11.546;2023-04-21T05:47:12;95569.03;;;8.15;93.23
29239;BME280;16267;48.194;11.546;2023-04-21T05:49:42;95567.47;;;8.18;92.93
29239;BME280;16267;48.194;11.546;2023-04-21T05:52:15;95569.69;;;8.23;92.98
29239;BME280;16267;48.194;11.546;2023-04-21T05:54:41;95571.19;;;8.27;92.76
29239;BME280;16267;48.194;11.546;2023-04-21T05:57:07;95574.63;;;8.32;92.68
29239;BME280;16267;48.194;11.546;2023-04-21T05:59:33;95578.00;;;8.36;92.63
29239;BME280;16267;48.194;11.546;2023-04-21T06:01:59;95573.44;;;8.40;92.52
29239;BME280;16267;48.194;11.546;2023-04-21T06:04:25;95566.13;;;8.44;91.85
29239;BME280;16267;48.194;11.546;2023-04-21T06:06:50;95566.47;;;8.49;91.79
29239;BME280;16267;48.194;11.546;2023-04-21T06:09:16;95569.47;;;8.55;91.54
29239;BME280;16267;48.194;11.546;2023-04-21T06:11:42;95570.16;;;8.63;91.45
29239;BME280;16267;48.194;11.546;2023-04-21T06:14:07;95573.13;;;8.72;90.30
29239;BME280;16267;48.194;11.546;2023-04-21T06:16:33;95566.97;;;8.79;88.72
29239;BME280;16267;48.194;11.546;2023-04-21T06:18:59;95569.81;;;8.99;90.11
29239;BME280;16267;48.194;11.546;2023-04-21T06:21:28;95569.19;;;9.18;87.58
29239;BME280;16267;48.194;11.546;2023-04-21T06:23:53;95569.66;;;9.44;89.05
29239;BME280;16267;48.194;11.546;2023-04-21T06:26:19;95557.91;;;9.65;89.54
29239;BME280;16267;48.194;11.546;2023-04-21T06:28:45;95546.56;;;9.80;85.93
29239;BME280;16267;48.194;11.546;2023-04-21T06:31:11;95554.66;;;10.04;86.27
29239;BME280;16267;48.194;11.546;2023-04-21T06:33:40;95550.47;;;10.26;85.61
29239;BME280;16267;48.194;11.546;2023-04-21T06:36:06;95543.25;;;10.47;84.05
29239;BME280;16267;48.194;11.546;2023-04-21T06:38:32;95550.19;;;10.68;83.28
29239;BME280;16267;48.194;11.546;2023-04-21T06:40:58;95550.22;;;10.88;82.64
29239;BME280;16267;48.194;11.546;2023-04-21T06:43:24;95554.91;;;11.04;79.36
29239;BME280;16267;48.194;11.546;2023-04-21T06:45:49;95545.38;;;11.19;78.86
29239;BME280;16267;48.194;11.546;2023-04-21T06:48:15;95545.13;;;11.33;75.93
29239;BME280;16267;48.194;11.546;2023-04-21T06:50:41;95543.03;;;11.41;74.62
29239;BME280;16267;48.194;11.546;2023-04-21T06:53:09;95545.09;;;11.53;73.89
29239;BME280;16267;48.194;11.546;2023-04-21T06:55:36;95540.16;;;11.68;75.63
29239;BME280;16267;48.194;11.546;2023-04-21T06:58:02;95548.00;;;11.79;73.88
29239;BME280;16267;48.194;11.546;2023-04-21T07:00:27;95542.50;;;11.86;72.27
29239;BME280;16267;48.194;11.546;2023-04-21T07:02:53;95537.53;;;12.01;72.89
29239;BME280;16267;48.194;11.546;2023-04-21T07:05:19;95537.69;;;12.10;72.36
29239;BME280;16267;48.194;11.546;2023-04-21T07:07:45;95542.16;;;12.17;71.71
29239;BME280;16267;48.194;11.546;2023-04-21T07:10:10;95546.63;;;12.23;71.59
29239;BME280;16267;48.194;11.546;2023-04-21T07:12:36;95543.84;;;12.27;71.32
29239;BME280;16267;48.194;11.546;2023-04-21T07:15:02;95536.19;;;12.25;69.28
29239;BME280;16267;48.194;11.546;2023-04-21T07:17:28;95530.63;;;12.33;68.78
29239;BME280;16267;48.194;11.546;2023-04-21T07:20:00;95537.34;;;12.24;66.42
29239;BME280;16267;48.194;11.546;2023-04-21T07:22:26;95535.94;;;12.36;67.63
29239;BME280;16267;48.194;11.546;2023-04-21T07:25:04;95539.44;;;12.33;68.39
29239;BME280;16267;48.194;11.546;2023-04-21T07:27:32;95541.22;;;12.40;67.65
29239;BME280;16267;48.194;11.546;2023-04-21T07:29:58;95538.53;;;12.40;68.20
29239;BME280;16267;48.194;11.546;2023-04-21T07:32:24;95538.09;;;12.41;69.07
29239;BME280;16267;48.194;11.546;2023-04-21T07:34:49;95532.50;;;12.19;67.67
29239;BME280;16267;48.194;11.546;2023-04-21T07:37:15;95529.81;;;12.19;65.92
29239;BME280;16267;48.194;11.546;2023-04-21T07:39:41;95531.31;;;12.20;68.07
29239;BME280;16267;48.194;11.546;2023-04-21T07:42:07;95532.81;;;12.21;68.78
29239;BME280;16267;48.194;11.546;2023-04-21T07:44:34;95524.84;;;12.18;68.44
29239;BME280;16267;48.194;11.546;2023-04-21T07:47:00;95533.50;;;12.25;69.18
29239;BME280;16267;48.194;11.546;2023-04-21T07:49:25;95540.97;;;12.34;69.72
29239;BME280;16267;48.194;11.546;2023-04-21T07:51:51;95536.50;;;12.44;70.00
29239;BME280;16267;48.194;11.546;2023-04-21T07:54:17;95543.22;;;12.52;68.92
29239;BME280;16267;48.194;11.546;2023-04-21T07:56:43;95537.56;;;12.63;67.63
29239;BME280;16267;48.194;11.546;2023-04-21T07:59:08;95548.50;;;12.72;67.73
29239;BME280;16267;48.194;11.546;2023-04-21T08:01:34;95544.34;;;12.84;66.64
29239;BME280;16267;48.194;11.546;2023-04-21T08:04:00;95536.91;;;12.88;66.64
29239;BME280;16267;48.194;11.546;2023-04-21T08:06:26;95541.38;;;12.94;67.49
29239;BME280;16267;48.194;11.546;2023-04-21T08:08:52;95548.09;;;13.03;67.43
29239;BME280;16267;48.194;11.546;2023-04-21T08:11:19;95545.50;;;13.12;66.23
29239;BME280;16267;48.194;11.546;2023-04-21T08:13:45;95540.78;;;13.16;65.73
29239;BME280;16267;48.194;11.546;2023-04-21T08:16:10;95548.59;;;13.27;65.47
29239;BME280;16267;48.194;11.546;2023-04-21T08:18:36;95541.19;;;13.31;65.02
29239;BME280;16267;48.194;11.546;2023-04-21T08:21:02;95554.34;;;13.54;66.12
29239;BME280;16267;48.194;11.546;2023-04-21T08:23:28;95540.66;;;13.74;65.16
29239;BME280;16267;48.194;11.546;2023-04-21T08:25:57;95544.56;;;13.86;64.23
29239;BME280;16267;48.194;11.546;2023-04-21T08:28:22;95546.97;;;13.97;64.61
29239;BME280;16267;48.194;11.546;2023-04-21T08:30:48;95537.13;;;14.03;63.65
29239;BME280;16267;48.194;11.546;2023-04-21T08:33:14;95538.84;;;14.10;63.33
29239;BME280;16267;48.194;11.546;2023-04-21T08:35:43;95542.06;;;14.30;63.04
29239;BME280;16267;48.194;11.546;2023-04-21T08:38:08;95538.91;;;14.44;60.86
29239;BME280;16267;48.194;11.546;2023-04-21T08:40:36;95538.88;;;14.57;60.43
29239;BME280;16267;48.194;11.546;2023-04-21T08:43:04;95538.53;;;14.68;60.31
29239;BME280;16267;48.194;11.546;2023-04-21T08:45:32;95536.97;;;14.80;62.19
29239;BME280;16267;48.194;11.546;2023-04-21T08:48:00;95537.88;;;14.99;62.93
29239;BME280;16267;48.194;11.546;2023-04-21T08:50:28;95529.25;;;15.13;60.82
29239;BME280;16267;48.194;11.546;2023-04-21T08:52:55;95531.38;;;15.18;60.31
29239;BME280;16267;48.194;11.546;2023-04-21T08:55:28;95538.38;;;15.28;57.70
29239;BME280;16267;48.194;11.546;2023-04-21T08:57:55;95532.13;;;15.40;58.31
29239;BME280;16267;48.194;11.546;2023-04-21T09:00:21;95530.38;;;15.47;57.60
29239;BME280;16267;48.194;11.546;2023-04-21T09:02:59;95531.88;;;15.48;57.71
29239;BME280;16267;48.194;11.546;2023-04-21T09:05:27;95530.41;;;15.56;58.03
29239;BME280;16267;48.194;11.546;2023-04-21T09:08:14;95532.28;;;15.68;58.07
29239;BME280;16267;48.194;11.546;2023-04-21T09:11:04;95523.41;;;15.68;58.17
29239;BME280;16267;48.194;11.546;2023-04-21T09:13:35;95517.94;;;15.80;57.82
29239;BME280;16267;48.194;11.546;2023-04-21T09:16:04;95525.94;;;15.62;56.75
29239;BME280;16267;48.194;11.546;2023-04-21T09:18:31;95524.06;;;15.72;56.88
29239;BME280;16267;48.194;11.546;2023-04-21T09:21:15;95524.81;;;15.72;55.50
29239;BME280;16267;48.194;11.546;2023-04-21T09:23:50;95521.22;;;15.75;57.42
29239;BME280;16267;48.194;11.546;2023-04-21T09:26:19;95509.94;;;15.77;58.06
29239;BME280;16267;48.194;11.546;2023-04-21T09:28:49;95520.59;;;15.71;57.24
29239;BME280;16267;48.194;11.546;2023-04-21T09:31:17;95523.84;;;15.66;57.71
29239;BME280;16267;48.194;11.546;2023-04-21T09:33:53;95526.97;;;15.55;55.51
29239;BME280;16267;48.194;11.546;2023-04-21T09:36:21;95523.19;;;15.53;56.44
29239;BME280;16267;48.194;11.546;2023-04-21T09:38:56;95518.03;;;15.46;57.76
29239;BME280;16267;48.194;11.546;2023-04-21T09:41:23;95518.56;;;15.09;56.17
29239;BME280;16267;48.194;11.546;2023-04-21T09:43:50;95519.00;;;15.30;58.10
29239;BME280;16267;48.194;11.546;2023-04-21T09:46:17;95521.75;;;15.39;57.93
29239;BME280;16267;48.194;11.546;2023-04-21T09:48:45;95524.56;;;15.57;58.26
29239;BME280;16267;48.194;11.546;2023-04-21T09:51:13;95525.03;;;15.65;57.48
29239;BME280;16267;48.194;11.546;2023-04-21T09:53:41;95528.75;;;15.80;58.56
29239;BME280;16267;48.194;11.546;2023-04-21T09:56:15;95517.19;;;15.89;57.25
29239;BME280;16267;48.194;11.546;2023-04-21T09:58:54;95518.13;;;16.04;57.87
29239;BME280;16267;48.194;11.546;2023-04-21T10:01:25;95518.59;;;16.03;56.84
29239;BME280;16267;48.194;11.546;2023-04-21T10:03:52;95512.03;;;16.13;55.50
29239;BME280;16267;48.194;11.546;2023-04-21T10:06:18;95524.94;;;16.18;55.96
29239;BME280;16267;48.194;11.546;2023-04-21T10:08:44;95520.31;;;16.19;55.64
29239;BME280;16267;48.194;11.546;2023-04-21T10:11:12;95513.50;;;16.14;55.85
29239;BME280;16267;48.194;11.546;2023-04-21T10:13:38;95517.13;;;16.20;56.15
29239;BME280;16267;48.194;11.546;2023-04-21T10:16:07;95509.75;;;16.21;55.61
29239;BME280;16267;48.194;11.546;2023-04-21T10:18:44;95507.81;;;16.21;54.91
29239;BME280;16267;48.194;11.546;2023-04-21T10:21:16;95500.47;;;16.31;56.00
29239;BME280;16267;48.194;11.546;2023-04-21T10:23:47;95506.47;;;16.26;55.18
29239;BME280;16267;48.194;11.546;2023-04-21T10:26:23;95503.94;;;16.41;56.95
29239;BME280;16267;48.194;11.546;2023-04-21T10:28:59;95498.97;;;16.39;55.73
29239;BME280;16267;48.194;11.546;2023-04-21T10:34:13;95493.84;;;16.41;55.99
29239;BME280;16267;48.194;11.546;2023-04-21T10:41:55;95506.66;;;16.50;54.70
29239;BME280;16267;48.194;11.546;2023-04-21T10:44:27;95497.34;;;16.60;56.21
29239;BME280;16267;48.194;11.546;2023-04-21T10:46:53;95500.34;;;16.62;54.79
29239;BME280;16267;48.194;11.546;2023-04-21T10:49:36;95491.31;;;16.75;56.19
29239;BME280;16267;48.194;11.546;2023-04-21T10:52:07;95493.59;;;16.85;56.39
29239;BME280;16267;48.194;11.546;2023-04-21T10:57:14;95488.94;;;16.86;55.05
29239;BME280;16267;48.194;11.546;2023-04-21T10:59:41;95486.81;;;16.99;56.30
29239;BME280;16267;48.194;11.546;2023-04-21T11:02:11;95481.94;;;17.12;56.84
29239;BME280;16267;48.194;11.546;2023-04-21T11:04:38;95479.25;;;17.22;56.39
29239;BME280;16267;48.194;11.546;2023-04-21T11:07:14;95468.03;;;17.38;56.99
29239;BME280;16267;48.194;11.546;2023-04-21T11:09:42;95465.41;;;17.53;56.88
29239;BME280;16267;48.194;11.546;2023-04-21T11:12:16;95463.25;;;17.66;56.55
29239;BME280;16267;48.194;11.546;2023-04-21T11:14:45;95460.06;;;17.77;55.89
29239;BME280;16267;48.194;11.546;2023-04-21T11:17:18;95462.44;;;17.84;55.33
29239;BME280;16267;48.194;11.546;2023-04-21T11:19:54;95459.97;;;17.95;54.80
29239;BME280;16267;48.194;11.546;2023-04-21T11:22:23;95450.34;;;17.94;54.04
29239;BME280;16267;48.194;11.546;2023-04-21T11:24:54;95448.91;;;18.08;55.68
29239;BME280;16267;48.194;11.546;2023-04-21T11:27:21;95448.81;;;18.17;53.95
29239;BME280;16267;48.194;11.546;2023-04-21T11:29:49;95450.78;;;18.17;53.44
29239;BME280;16267;48.194;11.546;2023-04-21T11:32:17;95448.19;;;18.22;54.12
29239;BME280;16267;48.194;11.546;2023-04-21T11:34:43;95447.25;;;18.25;54.01
29239;BME280;16267;48.194;11.546;2023-04-21T11:37:16;95449.06;;;18.28;54.32
29239;BME280;16267;48.194;11.546;2023-04-21T11:39:45;95445.03;;;18.24;53.61
29239;BME280;16267;48.194;11.546;2023-04-21T11:42:11;95454.97;;;18.27;53.40
29239;BME280;16267;48.194;11.546;2023-04-21T11:44:44;95444.09;;;18.27;51.83
29239;BME280;16267;48.194;11.546;2023-04-21T11:47:24;95449.63;;;18.33;53.67
29239;BME280;16267;48.194;11.546;2023-04-21T11:49:55;95454.16;;;18.36;54.35
29239;BME280;16267;48.194;11.546;2023-04-21T11:52:27;95448.72;;;18.36;53.40
29239;BME280;16267;48.194;11.546;2023-04-21T11:55:00;95449.56;;;18.42;54.25
29239;BME280;16267;48.194;11.546;2023-04-21T11:57:30;95445.16;;;18.44;53.92
29239;BME280;16267;48.194;11.546;2023-04-21T12:00:03;95452.88;;;18.46;54.78
29239;BME280;16267;48.194;11.546;2023-04-21T12:02:31;95451.00;;;18.52;55.25
29239;BME280;16267;48.194;11.546;2023-04-21T12:05:03;95439.66;;;18.54;54.56
29239;BME280;16267;48.194;11.546;2023-04-21T12:07:31;95445.38;;;18.56;53.86
29239;BME280;16267;48.194;11.546;2023-04-21T12:09:58;95443.59;;;18.53;53.85
29239;BME280;16267;48.194;11.546;2023-04-21T12:12:24;95444.63;;;18.55;54.63
29239;BME280;16267;48.194;11.546;2023-04-21T12:14:50;95444.34;;;18.53;54.26
29239;BME280;16267;48.194;11.546;2023-04-21T12:17:16;95449.13;;;18.43;54.19
29239;BME280;16267;48.194;11.546;2023-04-21T12:19:47;95452.28;;;18.42;55.00
29239;BME280;16267;48.194;11.546;2023-04-21T12:22:17;95446.41;;;18.43;54.75
29239;BME280;16267;48.194;11.546;2023-04-21T12:24:44;95443.78;;;18.49;56.38
29239;BME280;16267;48.194;11.546;2023-04-21T12:27:10;95448.22;;;18.37;55.38
29239;BME280;16267;48.194;11.546;2023-04-21T12:29:36;95444.88;;;18.42;55.18
29239;BME280;16267;48.194;11.546;2023-04-21T12:32:07;95453.56;;;18.32;54.65
29239;BME280;16267;48.194;11.546;2023-04-21T12:34:34;95461.59;;;18.26;54.35
29239;BME280;16267;48.194;11.546;2023-04-21T12:37:00;95449.53;;;18.27;53.47
29239;BME280;16267;48.194;11.546;2023-04-21T12:39:26;95452.66;;;18.35;54.29
29239;BME280;16267;48.194;11.546;2023-04-21T12:41:51;95446.75;;;18.36;53.43
29239;BME280;16267;48.194;11.546;2023-04-21T12:44:17;95440.56;;;18.36;52.48
29239;BME280;16267;48.194;11.546;2023-04-21T12:46:43;95440.75;;;18.32;52.49
29239;BME280;16267;48.194;11.546;2023-04-21T12:49:09;95433.34;;;18.33;51.80
29239;BME280;16267;48.194;11.546;2023-04-21T12:51:39;95430.22;;;18.25;50.47
29239;BME280;16267;48.194;11.546;2023-04-21T12:54:05;95432.00;;;18.28;50.28
29239;BME280;16267;48.194;11.546;2023-04-21T12:56:41;95428.84;;;18.30;49.35
29239;BME280;16267;48.194;11.546;2023-04-21T12:59:08;95425.53;;;18.25;48.04
29239;BME280;16267;48.194;11.546;2023-04-21T13:01:36;95432.75;;;18.28;48.08
29239;BME280;16267;48.194;11.546;2023-04-21T13:04:02;95421.88;;;18.28;46.84
29239;BME280;16267;48.194;11.546;2023-04-21T13:06:29;95422.72;;;18.20;47.64